METAR Formatted Surface Weather Observation
Issued by NWS

Home | Current Version | Previous Version | Text Only | Print | Product List | Glossary On
Versions: 1 2 3
000
SPZS31 NSTU 250924
MTRSPP
SPECI NSTU 250920Z 21003KT 8SM TS -SHRA BKN016CB OVC035 24/23 A2975
RMK FRQ LTGIC E TSB20 E CB ALQDS=


USA.gov is the U.S. government's official web portal to all federal, state and local government web resources and services.